createdAt,value
2022-09-17T00:01:22.599Z,11.93
2022-09-17T00:03:53.879Z,11.97
2022-09-17T00:06:21.224Z,11.84
2022-09-17T00:08:48.314Z,11.79
2022-09-17T00:11:26.948Z,11.72
2022-09-17T00:13:54.405Z,11.65
2022-09-17T00:16:41.361Z,11.62
2022-09-17T00:19:12.474Z,11.69
2022-09-17T00:21:42.389Z,11.65
2022-09-17T00:24:11.450Z,11.61
2022-09-17T00:26:38.218Z,11.56
2022-09-17T00:29:05.676Z,11.64
2022-09-17T00:31:36.897Z,11.62
2022-09-17T00:34:05.638Z,11.47
2022-09-17T00:36:35.167Z,11.37
2022-09-17T00:39:02.204Z,11.35
2022-09-17T00:41:34.270Z,11.40
2022-09-17T00:44:22.031Z,11.43
2022-09-17T00:46:49.647Z,11.41
2022-09-17T00:49:28.693Z,11.26
2022-09-17T00:52:08.317Z,11.34
2022-09-17T00:54:38.881Z,11.48
2022-09-17T00:57:05.716Z,11.46
2022-09-17T00:59:32.508Z,11.50
2022-09-17T01:01:59.002Z,11.55
2022-09-17T01:04:26.964Z,11.64
2022-09-17T01:07:06.042Z,11.56
2022-09-17T01:09:41.576Z,11.57
2022-09-17T01:12:14.017Z,11.50
2022-09-17T01:14:46.338Z,11.56
2022-09-17T01:17:29.965Z,11.55
2022-09-17T01:20:21.132Z,11.47
2022-09-17T01:23:02.796Z,11.41
2022-09-17T01:25:53.202Z,11.46
2022-09-17T01:28:29.330Z,11.48
2022-09-17T01:31:01.917Z,11.44
2022-09-17T01:33:28.802Z,11.45
2022-09-17T01:36:24.141Z,11.51
2022-09-17T01:39:12.607Z,11.56
2022-09-17T01:41:43.565Z,11.48
2022-09-17T01:44:32.005Z,11.52
2022-09-17T01:47:06.690Z,11.59
2022-09-17T01:49:37.872Z,11.51
2022-09-17T01:52:05.404Z,11.45
2022-09-17T01:54:42.530Z,11.59
2022-09-17T01:57:16.385Z,11.42
2022-09-17T01:59:49.378Z,11.50
2022-09-17T02:02:26.751Z,11.41
2022-09-17T02:05:07.553Z,11.40
2022-09-17T02:07:40.781Z,11.47
2022-09-17T02:10:19.639Z,11.41
2022-09-17T02:12:54.900Z,11.45
2022-09-17T02:15:27.655Z,11.42
2022-09-17T02:18:10.767Z,11.41
2022-09-17T02:20:52.686Z,11.43
2022-09-17T02:23:24.844Z,11.50
2022-09-17T02:25:59.712Z,11.53
2022-09-17T02:28:48.091Z,11.50
2022-09-17T02:31:14.619Z,11.41
2022-09-17T02:33:44.946Z,11.52
2022-09-17T02:36:11.718Z,11.48
2022-09-17T02:38:39.317Z,11.43
2022-09-17T02:41:30.532Z,11.38
2022-09-17T02:44:12.211Z,11.34
2022-09-17T02:46:57.382Z,11.36
2022-09-17T02:49:26.667Z,11.31
2022-09-17T02:52:32.214Z,11.40
2022-09-17T02:55:20.026Z,11.40
2022-09-17T02:57:53.480Z,11.41
2022-09-17T03:00:22.435Z,11.45
2022-09-17T03:02:53.837Z,11.46
2022-09-17T03:05:25.353Z,11.41
2022-09-17T03:07:51.992Z,11.47
2022-09-17T03:10:19.867Z,11.39
2022-09-17T03:12:46.354Z,11.42
2022-09-17T03:15:12.811Z,11.41
2022-09-17T03:17:41.789Z,11.30
2022-09-17T03:20:08.708Z,11.44
2022-09-17T03:22:35.713Z,11.36
2022-09-17T03:25:02.383Z,11.27
2022-09-17T03:27:28.826Z,11.15
2022-09-17T03:29:55.203Z,11.14
2022-09-17T03:32:21.607Z,11.05
2022-09-17T03:34:48.095Z,11.02
2022-09-17T03:37:14.522Z,10.98
2022-09-17T03:39:40.956Z,11.06
2022-09-17T03:42:09.519Z,10.97
2022-09-17T03:44:36.049Z,10.83
2022-09-17T03:47:02.451Z,10.77
2022-09-17T03:49:28.953Z,10.78
2022-09-17T03:51:55.425Z,10.90
2022-09-17T03:54:22.106Z,10.86
2022-09-17T03:56:48.718Z,10.82
2022-09-17T03:59:15.346Z,10.76
2022-09-17T04:01:42.099Z,10.73
2022-09-17T04:04:08.987Z,10.85
2022-09-17T04:06:35.753Z,10.78
2022-09-17T04:09:04.753Z,10.85
2022-09-17T04:11:31.202Z,10.77
2022-09-17T04:13:57.822Z,10.82
2022-09-17T04:16:26.683Z,10.96
2022-09-17T04:18:53.153Z,10.99
2022-09-17T04:21:19.763Z,10.85
2022-09-17T04:23:46.240Z,10.92
2022-09-17T04:26:12.749Z,10.91
2022-09-17T04:28:39.181Z,10.90
2022-09-17T04:31:05.721Z,10.94
2022-09-17T04:33:32.164Z,10.94
2022-09-17T04:36:00.755Z,10.94
2022-09-17T04:38:27.175Z,10.94
2022-09-17T04:40:54.502Z,11.00
2022-09-17T04:43:20.901Z,10.88
2022-09-17T04:45:48.336Z,10.83
2022-09-17T04:48:14.832Z,10.90
2022-09-17T04:50:41.246Z,10.84
2022-09-17T04:53:07.745Z,10.83
2022-09-17T04:55:34.237Z,10.87
2022-09-17T04:58:00.737Z,10.86
2022-09-17T05:00:27.424Z,10.85
2022-09-17T05:02:55.555Z,10.83
2022-09-17T05:05:23.147Z,10.76
2022-09-17T05:07:49.629Z,10.79
2022-09-17T05:10:18.050Z,10.76
2022-09-17T05:12:55.943Z,10.82
2022-09-17T05:15:23.901Z,10.73
2022-09-17T05:17:52.823Z,10.72
2022-09-17T05:20:19.515Z,10.87
2022-09-17T05:22:53.988Z,10.88
2022-09-17T05:25:24.888Z,10.94
2022-09-17T05:27:56.280Z,10.83
2022-09-17T05:30:23.641Z,10.89
2022-09-17T05:33:02.129Z,10.87
2022-09-17T05:35:31.956Z,10.92
2022-09-17T05:38:00.406Z,10.92
2022-09-17T05:40:28.063Z,10.96
2022-09-17T05:43:01.913Z,11.09
2022-09-17T05:45:29.420Z,10.95
2022-09-17T05:48:00.549Z,10.98
2022-09-17T05:50:28.427Z,11.00
2022-09-17T05:52:55.266Z,10.99
2022-09-17T05:55:23.721Z,11.04
2022-09-17T05:57:52.675Z,11.00
2022-09-17T06:00:19.276Z,11.00
2022-09-17T06:02:45.750Z,11.00
2022-09-17T06:05:17.012Z,11.05
2022-09-17T06:07:43.425Z,11.02
2022-09-17T06:10:10.051Z,10.97
2022-09-17T06:12:38.987Z,10.99
2022-09-17T06:15:06.680Z,11.07
2022-09-17T06:17:34.971Z,11.09
2022-09-17T06:20:05.990Z,11.13
2022-09-17T06:22:32.737Z,11.14
2022-09-17T06:25:03.812Z,11.07
2022-09-17T06:27:32.604Z,11.17
2022-09-17T06:29:59.300Z,11.14
2022-09-17T06:32:25.805Z,11.29
2022-09-17T06:34:52.473Z,11.21
2022-09-17T06:37:21.180Z,11.45
2022-09-17T06:39:47.636Z,11.62
2022-09-17T06:42:14.072Z,11.90
2022-09-17T06:44:40.921Z,11.69
2022-09-17T06:47:07.996Z,11.44
2022-09-17T06:49:34.468Z,11.55
2022-09-17T06:52:01.683Z,11.52
2022-09-17T06:54:28.139Z,11.48
2022-09-17T06:56:54.548Z,11.63
2022-09-17T06:59:21.014Z,11.73
2022-09-17T07:01:47.645Z,11.79
2022-09-17T07:04:14.151Z,12.11
2022-09-17T07:06:40.541Z,12.53
2022-09-17T07:09:11.146Z,12.95
2022-09-17T07:11:38.847Z,13.63
2022-09-17T07:14:06.829Z,13.71
2022-09-17T07:16:35.883Z,13.74
2022-09-17T07:19:04.074Z,13.64
2022-09-17T07:21:30.704Z,13.51
2022-09-17T07:23:57.229Z,13.40
2022-09-17T07:26:23.741Z,12.88
2022-09-17T07:28:50.147Z,12.84
2022-09-17T07:31:17.101Z,12.78
2022-09-17T07:33:44.269Z,12.60
2022-09-17T07:36:14.812Z,12.61
2022-09-17T07:38:41.406Z,12.94
2022-09-17T07:41:14.242Z,13.66
2022-09-17T07:43:41.891Z,14.03
2022-09-17T07:46:14.027Z,14.73
2022-09-17T07:48:43.218Z,15.05
2022-09-17T07:51:15.877Z,14.71
2022-09-17T07:53:42.293Z,14.26
2022-09-17T07:56:11.799Z,13.97
2022-09-17T07:58:38.662Z,13.79
2022-09-17T08:01:12.596Z,13.71
2022-09-17T08:03:39.979Z,13.69
2022-09-17T08:06:15.222Z,13.40
2022-09-17T08:08:44.082Z,13.40
2022-09-17T08:11:44.486Z,13.23
2022-09-17T08:14:11.728Z,13.24
2022-09-17T08:16:40.769Z,13.29
2022-09-17T08:19:07.773Z,13.21
2022-09-17T08:21:34.199Z,13.15
2022-09-17T08:24:00.737Z,13.14
2022-09-17T08:26:27.863Z,13.08
2022-09-17T08:28:56.379Z,13.24
2022-09-17T08:31:25.473Z,13.39
2022-09-17T08:33:52.532Z,13.58
2022-09-17T08:36:22.845Z,13.61
2022-09-17T08:38:53.251Z,13.74
2022-09-17T08:41:43.467Z,13.70
2022-09-17T08:44:33.892Z,13.72
2022-09-17T08:47:04.750Z,13.75
2022-09-17T08:49:49.604Z,13.95
2022-09-17T08:52:43.046Z,14.07
2022-09-17T08:55:10.704Z,14.11
2022-09-17T08:57:55.602Z,14.29
2022-09-17T09:00:24.480Z,14.44
2022-09-17T09:03:21.338Z,14.50
2022-09-17T09:05:52.413Z,14.67
2022-09-17T09:08:24.581Z,14.96
2022-09-17T09:10:55.696Z,15.20
2022-09-17T09:13:25.212Z,14.86
2022-09-17T09:15:55.042Z,14.82
2022-09-17T09:18:25.468Z,14.66
2022-09-17T09:21:23.948Z,14.44
2022-09-17T09:24:16.102Z,13.93
2022-09-17T09:27:01.338Z,13.69
2022-09-17T09:29:49.163Z,13.49
2022-09-17T09:32:39.594Z,13.35
2022-09-17T09:35:18.131Z,13.30
2022-09-17T09:37:54.658Z,13.27
2022-09-17T09:40:37.835Z,13.41
2022-09-17T09:43:14.855Z,13.42
2022-09-17T09:46:06.413Z,13.41
2022-09-17T09:48:51.301Z,13.40
2022-09-17T09:52:09.068Z,13.42
2022-09-17T09:54:41.385Z,13.45
2022-09-17T09:57:16.031Z,13.32
2022-09-17T09:59:42.479Z,13.22
2022-09-17T10:02:09.881Z,13.14
2022-09-17T10:04:36.369Z,12.85
2022-09-17T10:07:08.696Z,12.68
2022-09-17T10:09:38.487Z,12.63
2022-09-17T10:12:09.401Z,12.48
2022-09-17T10:14:38.080Z,12.50
2022-09-17T10:17:30.783Z,12.57
2022-09-17T10:19:59.921Z,12.43
2022-09-17T10:22:33.127Z,12.47
2022-09-17T10:25:01.057Z,12.23
2022-09-17T10:27:28.994Z,11.94
2022-09-17T10:30:08.107Z,11.85
2022-09-17T10:32:34.632Z,11.82
2022-09-17T10:35:07.179Z,11.87
2022-09-17T10:37:45.944Z,12.16
2022-09-17T10:40:18.726Z,12.27
2022-09-17T10:42:46.449Z,12.29
2022-09-17T10:45:26.169Z,12.48
2022-09-17T10:47:54.063Z,12.28
2022-09-17T10:50:30.795Z,12.22
2022-09-17T10:53:04.448Z,12.17
2022-09-17T10:55:34.126Z,12.21
2022-09-17T10:58:09.796Z,11.98
2022-09-17T11:00:52.332Z,11.98
2022-09-17T11:03:37.679Z,11.99
2022-09-17T11:06:09.746Z,11.71
2022-09-17T11:08:53.956Z,11.80
2022-09-17T11:11:32.747Z,11.82
2022-09-17T11:14:26.717Z,11.76
2022-09-17T11:17:13.413Z,11.87
2022-09-17T11:19:58.246Z,11.86
2022-09-17T11:22:51.030Z,11.90
2022-09-17T11:25:59.832Z,11.87
2022-09-17T11:28:33.202Z,11.98
2022-09-17T11:31:23.264Z,11.94
2022-09-17T11:34:19.838Z,11.97
2022-09-17T11:36:55.867Z,11.95
2022-09-17T11:39:46.702Z,12.16
2022-09-17T11:42:42.570Z,12.13
2022-09-17T11:45:19.144Z,12.19
2022-09-17T11:47:59.777Z,12.20
2022-09-17T11:50:32.506Z,12.30
2022-09-17T11:53:15.354Z,12.21
2022-09-17T11:55:53.626Z,12.24
2022-09-17T11:58:25.292Z,12.22
2022-09-17T12:01:03.683Z,12.16
2022-09-17T12:03:34.909Z,12.20
2022-09-17T12:06:11.288Z,12.09
2022-09-17T12:08:43.133Z,12.22
2022-09-17T12:11:36.891Z,12.32
2022-09-17T12:14:27.809Z,12.28
2022-09-17T12:17:00.442Z,12.28
2022-09-17T12:19:41.134Z,12.30
2022-09-17T12:22:12.535Z,12.49
2022-09-17T12:24:42.468Z,12.51
2022-09-17T12:27:18.255Z,12.63
2022-09-17T12:30:28.728Z,12.72
2022-09-17T12:33:16.179Z,12.85
2022-09-17T12:36:07.024Z,13.00
2022-09-17T12:38:35.852Z,13.08
2022-09-17T12:41:41.894Z,13.11
2022-09-17T12:44:30.418Z,13.26
2022-09-17T12:47:08.097Z,13.61
2022-09-17T12:49:46.928Z,13.94
2022-09-17T12:52:32.405Z,14.52
2022-09-17T12:55:17.816Z,14.71
2022-09-17T12:57:56.011Z,14.61
2022-09-17T13:00:22.651Z,14.65
2022-09-17T13:03:08.021Z,14.47
2022-09-17T13:06:05.559Z,14.38
2022-09-17T13:08:55.069Z,14.17
2022-09-17T13:11:41.282Z,14.09
2022-09-17T13:14:35.272Z,14.06
2022-09-17T13:17:23.583Z,14.00
2022-09-17T13:20:22.402Z,14.00
2022-09-17T13:22:54.328Z,14.09
2022-09-17T13:25:22.303Z,14.14
2022-09-17T13:27:50.575Z,14.13
2022-09-17T13:30:19.184Z,14.27
2022-09-17T13:32:52.186Z,14.40
2022-09-17T13:35:18.857Z,14.58
2022-09-17T13:38:01.693Z,14.75
2022-09-17T13:40:36.427Z,15.04
2022-09-17T13:43:11.986Z,14.89
2022-09-17T13:46:03.773Z,14.84
2022-09-17T13:48:32.823Z,14.91
2022-09-17T13:51:31.073Z,14.77
2022-09-17T13:54:02.100Z,14.70
2022-09-17T13:56:36.739Z,14.53
2022-09-17T13:59:13.583Z,14.48
2022-09-17T14:01:55.362Z,14.50
2022-09-17T14:04:43.027Z,14.69
2022-09-17T14:07:21.925Z,14.73
2022-09-17T14:10:02.729Z,14.57
2022-09-17T14:12:41.524Z,14.65
2022-09-17T14:15:32.322Z,14.53
2022-09-17T14:17:59.119Z,14.43
2022-09-17T14:20:26.468Z,14.24
2022-09-17T14:23:01.244Z,14.22
2022-09-17T14:25:52.395Z,14.07
2022-09-17T14:28:46.067Z,13.83
2022-09-17T14:31:19.361Z,13.93
2022-09-17T14:33:47.997Z,13.97
2022-09-17T14:36:21.208Z,13.99
2022-09-17T14:38:56.797Z,14.18
2022-09-17T14:41:35.602Z,14.42
2022-09-17T14:44:20.052Z,14.46
2022-09-17T14:46:49.908Z,14.71
2022-09-17T14:49:32.553Z,14.81
2022-09-17T14:52:05.867Z,14.88
2022-09-17T14:54:36.240Z,14.91
2022-09-17T14:57:09.198Z,14.91
2022-09-17T14:59:54.628Z,14.79
2022-09-17T15:02:23.875Z,14.62
2022-09-17T15:04:52.653Z,14.46
2022-09-17T15:07:23.427Z,14.30
2022-09-17T15:09:52.729Z,14.25
2022-09-17T15:12:24.963Z,14.18
2022-09-17T15:14:53.449Z,14.39
2022-09-17T15:17:22.250Z,14.42
2022-09-17T15:19:52.282Z,14.37
2022-09-17T15:22:32.315Z,14.37
2022-09-17T15:25:04.510Z,14.15
2022-09-17T15:27:40.675Z,14.24
2022-09-17T15:30:16.082Z,14.21
2022-09-17T15:32:49.026Z,14.31
2022-09-17T15:35:15.698Z,14.06
2022-09-17T15:38:11.912Z,14.10
2022-09-17T15:40:41.617Z,14.31
2022-09-17T15:43:17.163Z,14.14
2022-09-17T15:45:43.798Z,14.05
2022-09-17T15:48:28.361Z,14.06
2022-09-17T15:50:56.819Z,14.06
2022-09-17T15:53:28.387Z,13.89
2022-09-17T15:56:12.244Z,13.82
2022-09-17T15:58:41.757Z,13.81
2022-09-17T16:01:14.645Z,13.71
2022-09-17T16:03:41.115Z,13.61
2022-09-17T16:06:19.838Z,13.27
2022-09-17T16:08:52.665Z,13.26
2022-09-17T16:11:24.226Z,13.13
2022-09-17T16:13:53.392Z,13.14
2022-09-17T16:16:26.616Z,12.86
2022-09-17T16:18:53.174Z,12.69
2022-09-17T16:21:22.098Z,12.57
2022-09-17T16:23:54.122Z,12.49
2022-09-17T16:26:25.632Z,12.29
2022-09-17T16:28:54.694Z,12.16
2022-09-17T16:31:24.549Z,12.00
2022-09-17T16:33:55.037Z,11.91
2022-09-17T16:36:21.827Z,11.94
2022-09-17T16:38:48.375Z,11.85
2022-09-17T16:41:14.974Z,11.75
2022-09-17T16:43:41.837Z,11.72
2022-09-17T16:46:10.885Z,11.68
2022-09-17T16:48:41.253Z,11.72
2022-09-17T16:51:12.213Z,11.67
2022-09-17T16:53:39.835Z,11.54
2022-09-17T16:56:10.741Z,11.49
2022-09-17T16:58:37.961Z,11.30
2022-09-17T17:01:09.312Z,11.28
2022-09-17T17:03:35.992Z,11.35
2022-09-17T17:06:03.698Z,11.17
2022-09-17T17:08:33.977Z,11.17
2022-09-17T17:11:03.259Z,11.13
2022-09-17T17:13:32.055Z,11.24
2022-09-17T17:16:05.550Z,11.22
2022-09-17T17:18:32.150Z,11.12
2022-09-17T17:21:06.217Z,11.25
2022-09-17T17:23:33.947Z,11.17
2022-09-17T17:26:00.837Z,11.25
2022-09-17T17:28:27.400Z,11.17
2022-09-17T17:30:54.011Z,11.18
2022-09-17T17:33:20.676Z,11.29
2022-09-17T17:35:47.184Z,11.31
2022-09-17T17:38:13.805Z,11.29
2022-09-17T17:40:40.366Z,11.31
2022-09-17T17:43:07.008Z,11.28
2022-09-17T17:45:35.711Z,11.34
2022-09-17T17:48:04.699Z,11.33
2022-09-17T17:50:32.080Z,11.24
2022-09-17T17:52:58.592Z,11.16
2022-09-17T17:55:27.580Z,11.21
2022-09-17T17:58:01.362Z,11.21
2022-09-17T18:00:30.719Z,11.21
2022-09-17T18:02:57.174Z,11.12
2022-09-17T18:05:24.169Z,11.09
2022-09-17T18:07:52.954Z,11.00
2022-09-17T18:10:19.761Z,10.85
2022-09-17T18:12:50.610Z,11.00
2022-09-17T18:15:19.893Z,10.97
2022-09-17T18:17:48.039Z,10.87
2022-09-17T18:20:15.231Z,10.91
2022-09-17T18:22:44.326Z,10.87
2022-09-17T18:25:10.834Z,10.86
2022-09-17T18:27:39.981Z,10.83
2022-09-17T18:30:07.224Z,10.84
2022-09-17T18:32:33.662Z,10.73
2022-09-17T18:35:02.686Z,10.80
2022-09-17T18:37:34.359Z,10.81
2022-09-17T18:40:01.106Z,10.82
2022-09-17T18:42:27.688Z,10.75
2022-09-17T18:44:56.444Z,10.80
2022-09-17T18:47:22.972Z,11.01
2022-09-17T18:49:54.223Z,10.78
2022-09-17T18:52:22.958Z,10.88
2022-09-17T18:54:51.762Z,10.72
2022-09-17T18:57:20.468Z,10.83
2022-09-17T18:59:47.133Z,10.94
2022-09-17T19:02:18.474Z,10.83
2022-09-17T19:04:44.953Z,10.76
2022-09-17T19:07:14.008Z,10.77
2022-09-17T19:09:40.446Z,10.71
2022-09-17T19:12:07.030Z,10.63
2022-09-17T19:14:35.987Z,10.71
2022-09-17T19:17:04.744Z,10.70
2022-09-17T19:19:31.223Z,10.61
2022-09-17T19:21:59.845Z,10.65
2022-09-17T19:24:26.250Z,10.51
2022-09-17T19:26:55.081Z,10.59
2022-09-17T19:29:21.537Z,10.67
2022-09-17T19:31:48.308Z,10.55
2022-09-17T19:34:22.234Z,10.55
2022-09-17T19:36:48.705Z,10.55
2022-09-17T19:39:17.646Z,10.55
2022-09-17T19:41:46.386Z,10.63
2022-09-17T19:44:15.346Z,10.68
2022-09-17T19:46:45.116Z,10.64
2022-09-17T19:49:13.739Z,10.70
2022-09-17T19:51:40.199Z,10.68
2022-09-17T19:54:07.970Z,10.69
2022-09-17T19:56:34.419Z,10.65
2022-09-17T19:59:00.852Z,10.61
2022-09-17T20:01:29.588Z,10.51
2022-09-17T20:03:58.301Z,10.54
2022-09-17T20:06:24.793Z,10.51
2022-09-17T20:08:54.718Z,10.54
2022-09-17T20:11:28.108Z,10.54
2022-09-17T20:14:06.260Z,10.45
2022-09-17T20:16:37.041Z,10.39
2022-09-17T20:19:06.216Z,10.31
2022-09-17T20:21:37.766Z,10.43
2022-09-17T20:24:06.012Z,10.47
2022-09-17T20:26:33.318Z,10.40
2022-09-17T20:29:03.020Z,10.38
2022-09-17T20:31:33.325Z,10.45
2022-09-17T20:34:01.982Z,10.50
2022-09-17T20:36:36.076Z,10.54
2022-09-17T20:39:17.979Z,10.53
2022-09-17T20:41:46.208Z,10.50
2022-09-17T20:44:17.750Z,10.48
2022-09-17T20:46:44.241Z,10.43
2022-09-17T20:49:10.810Z,10.38
2022-09-17T20:51:37.307Z,10.48
2022-09-17T20:54:04.322Z,10.39
2022-09-17T20:56:33.320Z,10.32
2022-09-17T20:59:14.335Z,10.22
2022-09-17T21:01:49.518Z,10.24
2022-09-17T21:04:22.096Z,10.15
2022-09-17T21:06:52.766Z,10.07
2022-09-17T21:09:19.837Z,10.08
2022-09-17T21:11:50.285Z,10.10
2022-09-17T21:14:20.506Z,10.08
2022-09-17T21:16:49.319Z,10.12
2022-09-17T21:19:16.577Z,10.15
2022-09-17T21:21:43.651Z,10.13
2022-09-17T21:24:10.305Z,10.15
2022-09-17T21:26:37.199Z,10.24
2022-09-17T21:29:03.767Z,10.21
2022-09-17T21:31:34.603Z,10.28
2022-09-17T21:34:05.957Z,10.23
2022-09-17T21:36:34.989Z,10.19
2022-09-17T21:39:04.961Z,10.20
2022-09-17T21:41:36.558Z,10.20
2022-09-17T21:44:05.058Z,10.21
2022-09-17T21:46:36.862Z,10.20
2022-09-17T21:49:04.612Z,10.30
2022-09-17T21:51:32.328Z,10.32
2022-09-17T21:54:01.113Z,10.31
2022-09-17T21:56:30.732Z,10.32
2022-09-17T21:59:03.330Z,10.32
2022-09-17T22:01:39.491Z,10.34
2022-09-17T22:04:08.028Z,10.37
2022-09-17T22:06:35.393Z,10.37
2022-09-17T22:09:07.670Z,10.37
2022-09-17T22:11:36.742Z,10.38
2022-09-17T22:14:09.089Z,10.36
2022-09-17T22:16:38.262Z,10.33
2022-09-17T22:19:08.653Z,10.30
2022-09-17T22:21:41.020Z,10.38
2022-09-17T22:24:10.712Z,10.20
2022-09-17T22:26:40.894Z,10.31
2022-09-17T22:29:11.666Z,10.26
2022-09-17T22:31:38.517Z,10.27
2022-09-17T22:34:12.701Z,10.28
2022-09-17T22:36:41.549Z,10.20
2022-09-17T22:39:08.398Z,10.18
2022-09-17T22:41:37.848Z,10.18
2022-09-17T22:44:07.454Z,10.18
2022-09-17T22:46:39.217Z,10.17
2022-09-17T22:49:07.971Z,10.17
2022-09-17T22:51:34.514Z,10.14
2022-09-17T22:54:01.632Z,10.14
2022-09-17T22:56:31.463Z,10.06
2022-09-17T22:59:00.403Z,10.12
2022-09-17T23:01:31.328Z,10.09
2022-09-17T23:03:59.260Z,10.08
2022-09-17T23:06:28.877Z,10.00
2022-09-17T23:08:55.529Z,10.03
2022-09-17T23:11:37.667Z,10.02
2022-09-17T23:14:07.253Z,9.96
2022-09-17T23:16:40.628Z,9.93
2022-09-17T23:19:09.469Z,10.01
2022-09-17T23:21:37.189Z,9.94
2022-09-17T23:24:06.011Z,9.86
2022-09-17T23:26:33.118Z,9.84
2022-09-17T23:29:04.648Z,9.78
2022-09-17T23:31:34.570Z,9.80
2022-09-17T23:34:01.364Z,9.71
2022-09-17T23:36:30.148Z,9.67
2022-09-17T23:38:58.254Z,9.71
2022-09-17T23:41:32.974Z,9.69
2022-09-17T23:44:02.008Z,9.78
2022-09-17T23:46:31.447Z,9.69
2022-09-17T23:48:58.721Z,9.75
2022-09-17T23:51:28.066Z,9.79
2022-09-17T23:53:57.736Z,9.76
2022-09-17T23:56:26.180Z,9.75
2022-09-17T23:58:54.290Z,9.77
